createdAt,value
2019-01-29T00:01:40.331Z,97939.48
2019-01-29T00:04:10.049Z,97950.52
2019-01-29T00:06:39.796Z,97948.29
2019-01-29T00:09:10.787Z,97946.89
2019-01-29T00:11:40.576Z,97949.83
2019-01-29T00:14:10.208Z,97959.09
2019-01-29T00:16:39.922Z,97959.52
2019-01-29T00:19:09.545Z,97947.48
2019-01-29T00:21:39.284Z,97958.23
2019-01-29T00:24:08.881Z,97988.26
2019-01-29T00:26:38.534Z,97984.20
2019-01-29T00:29:08.306Z,97973.09
2019-01-29T00:31:37.886Z,97972.13
2019-01-29T00:34:07.491Z,97963.95
2019-01-29T00:36:37.157Z,97963.61
2019-01-29T00:39:09.068Z,97973.25
2019-01-29T00:41:38.678Z,97960.01
2019-01-29T00:44:08.335Z,97951.48
2019-01-29T00:46:37.938Z,97978.38
2019-01-29T00:49:07.743Z,97978.06
2019-01-29T00:51:37.489Z,97957.28
2019-01-29T00:54:07.264Z,97983.97
2019-01-29T00:56:36.890Z,97977.73
2019-01-29T00:59:06.613Z,97941.59
2019-01-29T01:01:36.195Z,97960.81
2019-01-29T01:04:06.356Z,97985.22
2019-01-29T01:06:35.994Z,97953.62
2019-01-29T01:09:08.388Z,97950.41
2019-01-29T01:11:38.019Z,97971.10
2019-01-29T01:14:07.912Z,97978.76
2019-01-29T01:16:37.501Z,97945.96
2019-01-29T01:19:07.184Z,97970.66
2019-01-29T01:21:36.893Z,97982.52
2019-01-29T01:24:06.675Z,97984.40
2019-01-29T01:26:36.285Z,97984.64
2019-01-29T01:29:06.101Z,97965.61
2019-01-29T01:31:35.685Z,97975.48
2019-01-29T01:34:05.293Z,97968.16
2019-01-29T01:36:35.091Z,97949.98
2019-01-29T01:39:07.551Z,97971.64
2019-01-29T01:41:37.280Z,97974.86
2019-01-29T01:44:07.051Z,97952.27
2019-01-29T01:46:36.664Z,97941.14
2019-01-29T01:49:06.265Z,97958.10
2019-01-29T01:51:35.946Z,97980.45
2019-01-29T01:54:05.890Z,97956.09
2019-01-29T01:56:35.518Z,97944.88
2019-01-29T01:59:05.921Z,97950.50
2019-01-29T02:01:35.545Z,97954.94
2019-01-29T02:04:05.293Z,97946.51
2019-01-29T02:06:34.935Z,97924.84
2019-01-29T02:09:06.670Z,97958.29
2019-01-29T02:11:36.269Z,97963.73
2019-01-29T02:14:06.289Z,97941.39
2019-01-29T02:16:35.926Z,97952.89
2019-01-29T02:19:05.627Z,97933.19
2019-01-29T02:21:35.313Z,97953.52
2019-01-29T02:24:05.012Z,97959.55
2019-01-29T02:26:34.625Z,97938.45
2019-01-29T02:29:04.466Z,97928.80
2019-01-29T02:31:34.082Z,97942.20
2019-01-29T02:34:03.879Z,97944.41
2019-01-29T02:36:33.570Z,97942.53
2019-01-29T02:39:04.870Z,97949.84
2019-01-29T02:41:34.525Z,97959.27
2019-01-29T02:44:04.164Z,97969.23
2019-01-29T02:46:33.759Z,97988.54
2019-01-29T02:49:03.359Z,97992.00
2019-01-29T02:51:33.088Z,97973.23
2019-01-29T02:54:02.820Z,97962.43
2019-01-29T02:56:32.432Z,97999.17
2019-01-29T02:59:02.076Z,97990.52
2019-01-29T03:01:31.666Z,97969.91
2019-01-29T03:04:01.302Z,97963.42
2019-01-29T03:06:31.072Z,97978.89
2019-01-29T03:09:00.643Z,97959.42
2019-01-29T03:11:30.229Z,97958.57
2019-01-29T03:13:59.956Z,97962.05
2019-01-29T03:16:29.563Z,97968.26
2019-01-29T03:18:59.195Z,97957.11
2019-01-29T03:21:28.868Z,97944.45
2019-01-29T03:23:58.466Z,97926.17
2019-01-29T03:26:28.119Z,97940.11
2019-01-29T03:28:57.764Z,97949.77
2019-01-29T03:31:27.350Z,97949.45
2019-01-29T03:33:56.978Z,97930.73
2019-01-29T03:36:26.639Z,97936.98
2019-01-29T03:38:56.272Z,97956.38
2019-01-29T03:41:25.883Z,97946.40
2019-01-29T03:43:55.549Z,97933.09
2019-01-29T03:46:25.149Z,97944.25
2019-01-29T03:48:54.757Z,97942.30
2019-01-29T03:51:24.620Z,97921.47
2019-01-29T03:53:54.213Z,97920.95
2019-01-29T03:56:23.838Z,97924.80
2019-01-29T03:58:53.498Z,97926.45
2019-01-29T04:01:23.122Z,97935.83
2019-01-29T04:03:52.804Z,97940.00
2019-01-29T04:06:22.548Z,97952.45
2019-01-29T04:08:52.177Z,97955.56
2019-01-29T04:11:21.864Z,97954.45
2019-01-29T04:13:51.545Z,97939.09
2019-01-29T04:16:21.190Z,97951.89
2019-01-29T04:18:50.793Z,97960.03
2019-01-29T04:21:20.570Z,97965.70
2019-01-29T04:23:50.177Z,97961.98
2019-01-29T04:26:19.820Z,97964.83
2019-01-29T04:28:49.456Z,97976.85
2019-01-29T04:31:19.054Z,97962.72
2019-01-29T04:33:48.699Z,97959.91
2019-01-29T04:36:20.309Z,97955.72
2019-01-29T04:38:50.241Z,97982.17
2019-01-29T04:41:19.882Z,97972.27
2019-01-29T04:43:49.619Z,97980.45
2019-01-29T04:46:20.994Z,97988.19
2019-01-29T04:48:50.596Z,97975.22
2019-01-29T04:51:24.984Z,97969.08
2019-01-29T04:53:57.851Z,97963.91
2019-01-29T04:56:33.037Z,97967.39
2019-01-29T04:59:02.635Z,97974.02
2019-01-29T05:01:32.251Z,97960.27
2019-01-29T05:04:02.048Z,97975.38
2019-01-29T05:06:31.633Z,97971.23
2019-01-29T05:09:01.356Z,97984.03
2019-01-29T05:11:31.015Z,97984.03
2019-01-29T05:14:00.605Z,97991.02
2019-01-29T05:16:30.207Z,97983.38
2019-01-29T05:18:59.936Z,97990.17
2019-01-29T05:21:29.530Z,97996.66
2019-01-29T05:24:06.623Z,98005.97
2019-01-29T05:26:30.505Z,97996.48
2019-01-29T05:29:00.350Z,97997.16
2019-01-29T05:31:30.355Z,97998.77
2019-01-29T05:34:00.076Z,97993.71
2019-01-29T05:36:29.704Z,97995.68
2019-01-29T05:38:59.303Z,97987.16
2019-01-29T05:41:28.966Z,97983.30
2019-01-29T05:43:58.572Z,97982.03
2019-01-29T05:46:28.197Z,97984.52
2019-01-29T05:48:57.831Z,97990.56
2019-01-29T05:51:27.458Z,97984.38
2019-01-29T05:53:57.032Z,97977.09
2019-01-29T05:56:26.758Z,97979.28
2019-01-29T05:58:56.406Z,97971.91
2019-01-29T06:01:26.089Z,97970.08
2019-01-29T06:04:05.636Z,97980.98
2019-01-29T06:06:35.268Z,97982.02
2019-01-29T06:09:07.522Z,97992.93
2019-01-29T06:11:37.384Z,97989.02
2019-01-29T06:14:07.317Z,98006.41
2019-01-29T06:16:36.961Z,98007.69
2019-01-29T06:19:07.045Z,97995.69
2019-01-29T06:21:36.670Z,97995.31
2019-01-29T06:24:06.524Z,97987.56
2019-01-29T06:26:36.251Z,97992.22
2019-01-29T06:29:08.433Z,98003.42
2019-01-29T06:31:38.030Z,98012.39
2019-01-29T06:34:07.692Z,98012.47
2019-01-29T06:36:37.320Z,98013.06
2019-01-29T06:39:10.208Z,98012.50
2019-01-29T06:41:39.936Z,98011.70
2019-01-29T06:44:09.563Z,98016.36
2019-01-29T06:46:39.163Z,98023.81
2019-01-29T06:49:08.972Z,98024.77
2019-01-29T06:51:38.604Z,98022.71
2019-01-29T06:54:08.200Z,98023.81
2019-01-29T06:56:37.856Z,98027.70
2019-01-29T06:59:07.485Z,98029.00
2019-01-29T07:01:37.096Z,98031.53
2019-01-29T07:04:06.902Z,98033.77
2019-01-29T07:06:36.583Z,98037.75
2019-01-29T07:09:09.251Z,98035.73
2019-01-29T07:11:39.066Z,98025.30
2019-01-29T07:14:08.804Z,98017.40
2019-01-29T07:17:06.185Z,98014.86
2019-01-29T07:19:39.145Z,98010.33
2019-01-29T07:22:08.906Z,98029.29
2019-01-29T07:24:42.964Z,98031.64
2019-01-29T07:27:09.869Z,98036.70
2019-01-29T07:29:39.616Z,98046.41
2019-01-29T07:32:09.414Z,98050.09
2019-01-29T07:34:39.343Z,98053.72
2019-01-29T07:37:09.119Z,98059.23
2019-01-29T07:39:38.743Z,98050.98
2019-01-29T07:42:08.463Z,98063.73
2019-01-29T07:44:38.306Z,98051.42
2019-01-29T07:47:08.027Z,98057.39
2019-01-29T07:49:37.674Z,98047.88
2019-01-29T07:52:07.560Z,98046.16
2019-01-29T07:54:37.337Z,98050.44
2019-01-29T07:57:07.045Z,98048.25
2019-01-29T07:59:36.786Z,98048.82
2019-01-29T08:02:06.565Z,98047.18
2019-01-29T08:04:39.233Z,98036.46
2019-01-29T08:07:09.002Z,98029.27
2019-01-29T08:09:38.706Z,98026.30
2019-01-29T08:12:08.450Z,98037.69
2019-01-29T08:14:38.176Z,98044.84
2019-01-29T08:17:07.952Z,98052.73
2019-01-29T08:19:37.557Z,98058.25
2019-01-29T08:22:07.183Z,98057.47
2019-01-29T08:24:36.824Z,98050.30
2019-01-29T08:27:06.601Z,98043.63
2019-01-29T08:29:36.670Z,98045.02
2019-01-29T08:32:07.233Z,98064.05
2019-01-29T08:34:37.145Z,98061.73
2019-01-29T08:37:07.691Z,98071.41
2019-01-29T08:39:37.550Z,98069.62
2019-01-29T08:42:07.200Z,98072.11
2019-01-29T08:44:36.839Z,98071.12
2019-01-29T08:47:07.048Z,98070.81
2019-01-29T08:49:37.058Z,98066.91
2019-01-29T08:52:06.659Z,98063.63
2019-01-29T08:54:36.335Z,98062.98
2019-01-29T08:57:06.253Z,98072.83
2019-01-29T08:59:37.428Z,98074.66
2019-01-29T09:02:08.232Z,98072.94
2019-01-29T09:04:40.190Z,98077.08
2019-01-29T09:07:10.609Z,98079.66
2019-01-29T09:09:40.295Z,98070.09
2019-01-29T09:12:09.958Z,98075.33
2019-01-29T09:14:39.590Z,98065.72
2019-01-29T09:17:09.238Z,98068.47
2019-01-29T09:19:38.872Z,98063.86
2019-01-29T09:22:08.543Z,98061.14
2019-01-29T09:24:38.204Z,98055.52
2019-01-29T09:27:07.875Z,98054.03
2019-01-29T09:29:37.504Z,98059.55
2019-01-29T09:32:07.185Z,98056.83
2019-01-29T09:34:36.813Z,98058.33
2019-01-29T09:37:06.406Z,98056.92
2019-01-29T09:39:36.064Z,98066.34
2019-01-29T09:42:09.044Z,98067.86
2019-01-29T09:44:38.926Z,98065.67
2019-01-29T09:47:09.396Z,98048.55
2019-01-29T09:49:39.079Z,98051.70
2019-01-29T09:52:08.904Z,98049.41
2019-01-29T09:54:38.569Z,98049.06
2019-01-29T09:57:08.274Z,98039.91
2019-01-29T09:59:37.899Z,98030.98
2019-01-29T10:02:07.646Z,98027.10
2019-01-29T10:04:37.384Z,98015.91
2019-01-29T10:07:07.200Z,98018.28
2019-01-29T10:09:36.854Z,98017.03
2019-01-29T10:12:06.441Z,98007.53
2019-01-29T10:14:36.038Z,98011.70
2019-01-29T10:17:05.853Z,98012.50
2019-01-29T10:19:35.516Z,98008.66
2019-01-29T10:22:05.281Z,98001.50
2019-01-29T10:24:34.891Z,97997.08
2019-01-29T10:27:04.759Z,97983.20
2019-01-29T10:29:34.423Z,97988.67
2019-01-29T10:32:04.263Z,97981.04
2019-01-29T10:34:33.876Z,97984.28
2019-01-29T10:37:03.780Z,97991.95
2019-01-29T10:39:33.509Z,97987.65
2019-01-29T10:42:06.010Z,97981.58
2019-01-29T10:44:36.261Z,97977.12
2019-01-29T10:47:06.252Z,97986.86
2019-01-29T10:49:36.175Z,97984.34
2019-01-29T10:52:08.204Z,97972.05
2019-01-29T10:54:37.919Z,97958.53
2019-01-29T10:57:10.118Z,97977.58
2019-01-29T10:59:39.546Z,97979.09
2019-01-29T11:02:09.597Z,97985.05
2019-01-29T11:04:39.467Z,97980.66
2019-01-29T11:07:09.393Z,97968.44
2019-01-29T11:09:40.306Z,97972.92
2019-01-29T11:12:11.283Z,97969.28
2019-01-29T11:14:41.554Z,97966.29
2019-01-29T11:17:12.106Z,97967.84
2019-01-29T11:19:41.849Z,97955.81
2019-01-29T11:22:12.832Z,97944.38
2019-01-29T11:24:42.656Z,97940.94
2019-01-29T11:27:12.626Z,97939.88
2019-01-29T11:29:42.326Z,97941.38
2019-01-29T11:32:11.958Z,97945.95
2019-01-29T11:34:41.818Z,97945.17
2019-01-29T11:37:12.162Z,97938.83
2019-01-29T11:39:41.987Z,97937.39
2019-01-29T11:42:11.658Z,97937.83
2019-01-29T11:44:41.546Z,97934.83
2019-01-29T11:47:11.269Z,97948.63
2019-01-29T11:49:40.985Z,97939.40
2019-01-29T11:52:11.337Z,97929.31
2019-01-29T11:54:41.481Z,97939.12
2019-01-29T11:57:12.945Z,97942.26
2019-01-29T11:59:43.367Z,97938.67
2019-01-29T12:02:13.633Z,97935.01
2019-01-29T12:04:44.315Z,97945.03
2019-01-29T12:07:15.393Z,97932.19
2019-01-29T12:09:46.760Z,97936.58
2019-01-29T12:12:19.076Z,97935.95
2019-01-29T12:14:48.837Z,97935.84
2019-01-29T12:17:18.579Z,97928.29
2019-01-29T12:19:48.537Z,97924.16
2019-01-29T12:22:18.694Z,97921.81
2019-01-29T12:24:48.380Z,97922.16
2019-01-29T12:27:18.087Z,97925.17
2019-01-29T12:29:47.836Z,97921.80
2019-01-29T12:32:17.593Z,97913.33
2019-01-29T12:34:47.391Z,97907.19
2019-01-29T12:37:19.943Z,97909.89
2019-01-29T12:39:49.680Z,97906.38
2019-01-29T12:42:19.935Z,97904.02
2019-01-29T12:44:49.609Z,97905.48
2019-01-29T12:47:20.247Z,97908.00
2019-01-29T12:50:19.658Z,97903.55
2019-01-29T12:53:19.760Z,97905.39
2019-01-29T12:55:51.197Z,97912.16
2019-01-29T12:58:21.268Z,97923.88
2019-01-29T13:01:08.191Z,97916.07
2019-01-29T13:03:47.129Z,97919.55
2019-01-29T13:06:17.265Z,97923.23
2019-01-29T13:08:47.931Z,97922.39
2019-01-29T13:11:31.965Z,97923.81
2019-01-29T13:14:03.551Z,97922.16
2019-01-29T13:16:35.602Z,97922.50
2019-01-29T13:19:05.706Z,97923.75
2019-01-29T13:21:35.647Z,97929.11
2019-01-29T13:24:11.040Z,97918.73
2019-01-29T13:26:40.997Z,97920.83
2019-01-29T13:29:15.242Z,97929.20
2019-01-29T13:31:47.411Z,97939.12
2019-01-29T13:34:20.123Z,97934.83
2019-01-29T13:36:51.364Z,97924.76
2019-01-29T13:39:25.369Z,97923.63
2019-01-29T13:41:59.002Z,97917.42
2019-01-29T13:44:28.652Z,97916.61
2019-01-29T13:46:58.406Z,97911.55
2019-01-29T13:49:28.033Z,97920.09
2019-01-29T13:51:57.928Z,97926.47
2019-01-29T13:54:27.557Z,97936.67
2019-01-29T13:56:57.304Z,97931.22
2019-01-29T13:59:27.024Z,97939.17
2019-01-29T14:01:57.793Z,97946.41
2019-01-29T14:04:27.435Z,97946.22
2019-01-29T14:06:57.263Z,97956.66
2019-01-29T14:09:28.554Z,97952.36
2019-01-29T14:11:58.433Z,97947.97
2019-01-29T14:14:29.753Z,97931.64
2019-01-29T14:16:59.530Z,97930.59
2019-01-29T14:19:29.178Z,97925.92
2019-01-29T14:21:58.968Z,97925.08
2019-01-29T14:24:28.565Z,97921.02
2019-01-29T14:26:58.343Z,97912.41
2019-01-29T14:29:29.454Z,97903.59
2019-01-29T14:31:59.048Z,97909.38
2019-01-29T14:34:28.646Z,97899.31
2019-01-29T14:36:58.311Z,97891.36
2019-01-29T14:39:41.687Z,97902.63
2019-01-29T14:42:11.369Z,97905.83
2019-01-29T14:44:45.160Z,97920.95
2019-01-29T14:47:14.794Z,97925.08
2019-01-29T14:49:44.447Z,97929.50
2019-01-29T14:52:14.567Z,97930.33
2019-01-29T14:54:44.195Z,97932.52
2019-01-29T14:57:14.338Z,97939.84
2019-01-29T14:59:43.972Z,97935.71
2019-01-29T15:02:13.607Z,97933.86
2019-01-29T15:04:43.343Z,97932.06
2019-01-29T15:07:12.978Z,97922.97
2019-01-29T15:09:42.611Z,97915.50
2019-01-29T15:12:12.281Z,97917.51
2019-01-29T15:14:41.906Z,97913.00
2019-01-29T15:17:31.721Z,97919.28
2019-01-29T15:20:01.347Z,97917.11
2019-01-29T15:22:31.099Z,97916.74
2019-01-29T15:25:01.006Z,97921.31
2019-01-29T15:27:30.694Z,97924.56
2019-01-29T15:30:00.315Z,97937.48
2019-01-29T15:32:30.088Z,97940.78
2019-01-29T15:34:59.683Z,97928.98
2019-01-29T15:37:29.309Z,97922.39
2019-01-29T15:39:59.010Z,97916.51
2019-01-29T15:42:28.672Z,97918.46
2019-01-29T15:44:58.969Z,97925.27
2019-01-29T15:47:28.832Z,97925.17
2019-01-29T15:49:58.466Z,97937.43
2019-01-29T15:52:28.221Z,97943.50
2019-01-29T15:54:57.953Z,97942.33
2019-01-29T15:57:27.724Z,97940.95
2019-01-29T15:59:57.457Z,97942.67
2019-01-29T16:02:27.146Z,97944.20
2019-01-29T16:04:56.757Z,97945.98
2019-01-29T16:07:26.586Z,97947.73
2019-01-29T16:09:56.246Z,97947.51
2019-01-29T16:12:26.094Z,97949.33
2019-01-29T16:14:55.774Z,97952.07
2019-01-29T16:17:25.458Z,97949.30
2019-01-29T16:19:55.098Z,97950.08
2019-01-29T16:22:24.731Z,97959.64
2019-01-29T16:24:54.533Z,97958.45
2019-01-29T16:27:24.245Z,97963.20
2019-01-29T16:29:53.923Z,97971.38
2019-01-29T16:32:23.599Z,97967.64
2019-01-29T16:34:53.220Z,97961.01
2019-01-29T16:37:22.870Z,97961.53
2019-01-29T16:39:52.669Z,97965.78
2019-01-29T16:42:22.322Z,97966.78
2019-01-29T16:44:52.006Z,97966.25
2019-01-29T16:47:21.882Z,97967.00
2019-01-29T16:49:51.480Z,97974.66
2019-01-29T16:52:21.103Z,97976.42
2019-01-29T16:54:50.780Z,97964.92
2019-01-29T16:57:20.387Z,97955.06
2019-01-29T16:59:50.407Z,97962.44
2019-01-29T17:02:20.159Z,97964.10
2019-01-29T17:04:49.851Z,97957.73
2019-01-29T17:07:19.568Z,97953.45
2019-01-29T17:09:49.338Z,97943.48
2019-01-29T17:12:18.949Z,97951.67
2019-01-29T17:14:49.844Z,97940.72
2019-01-29T17:17:19.810Z,97942.70
2019-01-29T17:19:49.481Z,97930.52
2019-01-29T17:22:19.117Z,97933.62
2019-01-29T17:24:48.762Z,97935.07
2019-01-29T17:27:18.389Z,97944.55
2019-01-29T17:29:48.038Z,97936.63
2019-01-29T17:32:17.725Z,97934.17
2019-01-29T17:34:47.330Z,97934.06
2019-01-29T17:37:16.926Z,97937.15
2019-01-29T17:39:46.593Z,97944.73
2019-01-29T17:42:16.280Z,97946.86
2019-01-29T17:44:45.908Z,97947.49
2019-01-29T17:47:15.715Z,97940.30
2019-01-29T17:49:45.376Z,97928.84
2019-01-29T17:52:15.005Z,97942.61
2019-01-29T17:54:44.717Z,97938.80
2019-01-29T17:57:14.317Z,97935.29
2019-01-29T17:59:43.971Z,97937.16
2019-01-29T18:02:13.837Z,97924.77
2019-01-29T18:04:43.557Z,97933.19
2019-01-29T18:07:13.189Z,97940.17
2019-01-29T18:09:42.926Z,97951.00
2019-01-29T18:12:12.585Z,97947.10
2019-01-29T18:14:42.251Z,97951.05
2019-01-29T18:17:11.999Z,97951.23
2019-01-29T18:19:41.649Z,97940.94
2019-01-29T18:22:12.275Z,97946.46
2019-01-29T18:24:41.964Z,97958.48
2019-01-29T18:27:11.612Z,97955.11
2019-01-29T18:29:41.286Z,97955.92
2019-01-29T18:32:10.984Z,97951.91
2019-01-29T18:34:40.589Z,97953.49
2019-01-29T18:37:10.221Z,97958.15
2019-01-29T18:39:39.900Z,97946.13
2019-01-29T18:42:09.513Z,97950.27
2019-01-29T18:44:39.108Z,97946.86
2019-01-29T18:47:08.876Z,97939.38
2019-01-29T18:49:38.496Z,97936.05
2019-01-29T18:52:08.130Z,97941.00
2019-01-29T18:54:37.858Z,97942.96
2019-01-29T18:57:07.603Z,97928.94
2019-01-29T18:59:37.268Z,97934.41
2019-01-29T19:02:07.193Z,97933.56
2019-01-29T19:04:36.865Z,97933.34
2019-01-29T19:07:06.502Z,97938.56
2019-01-29T19:09:36.182Z,97929.72
2019-01-29T19:12:05.913Z,97927.61
2019-01-29T19:14:35.607Z,97928.08
2019-01-29T19:17:07.055Z,97919.33
2019-01-29T19:19:36.666Z,97917.69
2019-01-29T19:22:06.344Z,97913.89
2019-01-29T19:24:36.003Z,97917.64
2019-01-29T19:27:05.755Z,97916.02
2019-01-29T19:29:35.373Z,97917.20
2019-01-29T19:32:05.317Z,97912.74
2019-01-29T19:34:35.059Z,97919.99
2019-01-29T19:37:04.755Z,97919.13
2019-01-29T19:39:34.478Z,97914.48
2019-01-29T19:42:04.101Z,97917.77
2019-01-29T19:44:33.777Z,97924.32
2019-01-29T19:47:03.475Z,97917.47
2019-01-29T19:49:33.080Z,97921.64
2019-01-29T19:52:02.694Z,97924.48
2019-01-29T19:54:32.448Z,97916.38
2019-01-29T19:57:02.163Z,97913.73
2019-01-29T19:59:31.815Z,97904.08
2019-01-29T20:02:01.510Z,97908.62
2019-01-29T20:04:31.111Z,97908.09
2019-01-29T20:07:00.737Z,97902.63
2019-01-29T20:09:30.413Z,97903.91
2019-01-29T20:12:00.186Z,97899.19
2019-01-29T20:14:29.859Z,97912.88
2019-01-29T20:16:59.680Z,97926.84
2019-01-29T20:19:29.391Z,97915.20
2019-01-29T20:21:59.045Z,97903.07
2019-01-29T20:24:28.734Z,97905.13
2019-01-29T20:26:58.322Z,97893.48
2019-01-29T20:29:27.957Z,97885.64
2019-01-29T20:31:57.714Z,97880.30
2019-01-29T20:34:27.340Z,97884.03
2019-01-29T20:36:57.145Z,97886.23
2019-01-29T20:39:34.790Z,97879.72
2019-01-29T20:41:58.164Z,97880.02
2019-01-29T20:44:27.793Z,97877.84
2019-01-29T20:46:57.583Z,97877.36
2019-01-29T20:49:27.207Z,97868.87
2019-01-29T20:51:56.871Z,97848.55
2019-01-29T20:54:29.635Z,97843.43
2019-01-29T20:56:59.243Z,97834.52
2019-01-29T20:59:55.898Z,97834.18
2019-01-29T21:02:25.058Z,97840.70
2019-01-29T21:04:56.573Z,97839.53
2019-01-29T21:07:26.458Z,97848.06
2019-01-29T21:09:56.060Z,97854.68
2019-01-29T21:12:28.542Z,97843.74
2019-01-29T21:14:58.247Z,97847.02
2019-01-29T21:17:27.862Z,97853.44
2019-01-29T21:19:57.458Z,97849.34
2019-01-29T21:22:27.830Z,97828.21
2019-01-29T21:24:57.420Z,97829.44
2019-01-29T21:27:27.009Z,97838.41
2019-01-29T21:29:56.661Z,97839.62
2019-01-29T21:32:26.579Z,97845.48
2019-01-29T21:34:56.204Z,97849.29
2019-01-29T21:37:25.930Z,97846.66
2019-01-29T21:39:55.512Z,97852.70
2019-01-29T21:42:25.101Z,97858.30
2019-01-29T21:44:54.868Z,97853.90
2019-01-29T21:47:24.475Z,97854.78
2019-01-29T21:49:54.071Z,97853.72
2019-01-29T21:52:23.727Z,97840.75
2019-01-29T21:54:53.333Z,97843.28
2019-01-29T21:57:22.926Z,97849.71
2019-01-29T21:59:52.748Z,97846.02
2019-01-29T22:02:22.346Z,97837.19
2019-01-29T22:04:51.987Z,97839.56
2019-01-29T22:07:21.622Z,97837.08
2019-01-29T22:09:51.236Z,97825.52
2019-01-29T22:12:20.954Z,97833.84
2019-01-29T22:14:50.697Z,97842.27
2019-01-29T22:17:20.294Z,97841.08
2019-01-29T22:19:49.891Z,97842.83
2019-01-29T22:22:19.552Z,97840.67
2019-01-29T22:24:49.148Z,97843.19
2019-01-29T22:27:18.739Z,97854.52
2019-01-29T22:29:48.443Z,97832.22
2019-01-29T22:32:18.028Z,97838.08
2019-01-29T22:34:47.598Z,97838.84
2019-01-29T22:37:17.240Z,97841.41
2019-01-29T22:39:46.869Z,97833.70
2019-01-29T22:42:16.446Z,97833.78
2019-01-29T22:44:46.080Z,97841.54
2019-01-29T22:47:15.666Z,97837.88
2019-01-29T22:49:45.232Z,97830.84
2019-01-29T22:52:14.959Z,97821.98
2019-01-29T22:54:44.529Z,97818.46
2019-01-29T22:57:14.089Z,97811.48
2019-01-29T22:59:43.779Z,97807.61
2019-01-29T23:02:13.347Z,97809.41
2019-01-29T23:04:46.746Z,97808.39
2019-01-29T23:07:27.855Z,97801.36
2019-01-29T23:09:57.484Z,97815.13
2019-01-29T23:12:27.356Z,97797.12
2019-01-29T23:14:56.959Z,97779.66
2019-01-29T23:17:26.723Z,97793.57
2019-01-29T23:19:56.273Z,97802.56
2019-01-29T23:22:46.293Z,97795.89
2019-01-29T23:25:15.922Z,97782.32
2019-01-29T23:27:45.523Z,97764.67
2019-01-29T23:30:16.893Z,97776.09
2019-01-29T23:32:46.497Z,97781.41
2019-01-29T23:35:16.449Z,97769.13
2019-01-29T23:37:46.169Z,97766.31
2019-01-29T23:40:16.181Z,97758.33
2019-01-29T23:42:45.881Z,97750.14
2019-01-29T23:45:15.806Z,97760.61
2019-01-29T23:47:45.450Z,97762.22
2019-01-29T23:50:15.247Z,97761.95
2019-01-29T23:52:44.905Z,97759.90
2019-01-29T23:55:14.803Z,97770.31
2019-01-29T23:57:44.425Z,97764.05
